createdAt,value
2023-04-30T00:01:18.681Z,98548.75
2023-04-30T00:03:45.642Z,98560.59
2023-04-30T00:06:35.926Z,98578.56
2023-04-30T00:09:03.640Z,98556.75
2023-04-30T00:11:30.312Z,98578.19
2023-04-30T00:13:57.248Z,98581.66
2023-04-30T00:16:26.143Z,98572.69
2023-04-30T00:18:53.091Z,98518.91
2023-04-30T00:21:20.016Z,98551.56
2023-04-30T00:23:53.870Z,98549.03
2023-04-30T00:26:21.031Z,98560.28
2023-04-30T00:28:49.167Z,98522.31
2023-04-30T00:31:16.036Z,98568.31
2023-04-30T00:33:42.901Z,98547.91
2023-04-30T00:36:10.214Z,98479.00
2023-04-30T00:38:56.792Z,98569.81
2023-04-30T00:41:23.680Z,98481.50
2023-04-30T00:43:50.390Z,98550.59
2023-04-30T00:46:17.427Z,98571.91
2023-04-30T00:48:44.191Z,98574.34
2023-04-30T00:51:11.717Z,98522.00
2023-04-30T00:53:40.315Z,98527.34
2023-04-30T00:56:09.626Z,98515.66
2023-04-30T00:58:37.081Z,98576.03
2023-04-30T01:01:05.399Z,98526.53
2023-04-30T01:03:32.616Z,98487.47
2023-04-30T01:05:59.415Z,98555.53
2023-04-30T01:08:26.536Z,98555.34
2023-04-30T01:11:12.256Z,98565.38
2023-04-30T01:13:59.050Z,98531.00
2023-04-30T01:16:28.703Z,98555.75
2023-04-30T01:19:03.507Z,98558.41
2023-04-30T01:21:33.316Z,98535.50
2023-04-30T01:24:47.751Z,98554.31
2023-04-30T01:27:46.903Z,98561.25
2023-04-30T01:30:16.732Z,98537.34
2023-04-30T01:32:45.403Z,98559.63
2023-04-30T01:35:12.614Z,98544.09
2023-04-30T01:38:00.212Z,98557.81
2023-04-30T01:40:44.493Z,98552.88
2023-04-30T01:43:26.369Z,98544.91
2023-04-30T01:46:20.478Z,98556.19
2023-04-30T01:49:02.436Z,98550.44
2023-04-30T01:51:37.924Z,98540.84
2023-04-30T01:54:20.793Z,98564.97
2023-04-30T01:57:07.468Z,98573.16
2023-04-30T01:59:40.824Z,98570.28
2023-04-30T02:02:07.584Z,98577.25
2023-04-30T02:04:35.086Z,98512.63
2023-04-30T02:07:04.074Z,98565.97
2023-04-30T02:09:31.046Z,98537.16
2023-04-30T02:11:58.008Z,98466.41
2023-04-30T02:14:25.564Z,98528.97
2023-04-30T02:16:53.295Z,98535.53
2023-04-30T02:19:20.230Z,98526.50
2023-04-30T02:22:12.286Z,98556.38
2023-04-30T02:24:39.150Z,98528.16
2023-04-30T02:27:06.999Z,98549.84
2023-04-30T02:29:33.742Z,98532.69
2023-04-30T02:32:00.925Z,98448.19
2023-04-30T02:34:28.013Z,98530.22
2023-04-30T02:36:57.912Z,98513.44
2023-04-30T02:39:24.807Z,98513.44
2023-04-30T02:41:51.638Z,98454.50
2023-04-30T02:44:20.629Z,98534.69
2023-04-30T02:46:47.777Z,98526.91
2023-04-30T02:49:17.156Z,98564.16
2023-04-30T02:51:43.973Z,98563.53
2023-04-30T02:54:10.842Z,98543.28
2023-04-30T02:56:39.453Z,98509.72
2023-04-30T02:59:06.604Z,98570.06
2023-04-30T03:01:33.480Z,98509.31
2023-04-30T03:04:00.321Z,98574.59
2023-04-30T03:06:28.241Z,98549.59
2023-04-30T03:08:55.061Z,98534.22
2023-04-30T03:11:21.942Z,98562.69
2023-04-30T03:13:56.912Z,98561.66
2023-04-30T03:16:32.911Z,98551.03
2023-04-30T03:18:59.616Z,98503.97
2023-04-30T03:21:26.403Z,98464.25
2023-04-30T03:23:53.148Z,98558.78
2023-04-30T03:26:21.382Z,98557.78
2023-04-30T03:28:48.042Z,98545.50
2023-04-30T03:31:26.543Z,98514.63
2023-04-30T03:33:53.280Z,98537.53
2023-04-30T03:36:20.055Z,98536.72
2023-04-30T03:38:46.883Z,98529.56
2023-04-30T03:41:13.784Z,98453.81
2023-04-30T03:43:40.574Z,98464.06
2023-04-30T03:46:24.193Z,98556.53
2023-04-30T03:48:51.277Z,98553.22
2023-04-30T03:51:20.689Z,98498.66
2023-04-30T03:53:48.534Z,98564.09
2023-04-30T03:56:15.697Z,98539.53
2023-04-30T03:58:42.892Z,98547.75
2023-04-30T04:01:09.755Z,98517.69
2023-04-30T04:03:36.746Z,98494.38
2023-04-30T04:06:03.807Z,98520.97
2023-04-30T04:08:31.469Z,98556.13
2023-04-30T04:10:58.369Z,98450.69
2023-04-30T04:13:48.034Z,98552.63
2023-04-30T04:16:14.843Z,98549.34
2023-04-30T04:18:41.702Z,98543.59
2023-04-30T04:21:19.939Z,98560.81
2023-04-30T04:23:46.812Z,98548.91
2023-04-30T04:26:15.197Z,98480.78
2023-04-30T04:28:59.630Z,98553.44
2023-04-30T04:31:27.026Z,98572.03
2023-04-30T04:33:58.297Z,98565.50
2023-04-30T04:36:27.727Z,98457.63
2023-04-30T04:39:08.457Z,98535.84
2023-04-30T04:41:38.509Z,98522.72
2023-04-30T04:44:06.644Z,98538.09
2023-04-30T04:46:34.703Z,98562.03
2023-04-30T04:49:02.164Z,98465.63
2023-04-30T04:51:29.396Z,98462.56
2023-04-30T04:54:06.382Z,98567.59
2023-04-30T04:56:34.252Z,98508.66
2023-04-30T04:59:01.591Z,98545.69
2023-04-30T05:01:29.677Z,98553.69
2023-04-30T05:03:56.562Z,98567.63
2023-04-30T05:06:23.567Z,98540.41
2023-04-30T05:09:09.504Z,98546.50
2023-04-30T05:11:36.571Z,98561.69
2023-04-30T05:14:03.474Z,98574.59
2023-04-30T05:16:34.498Z,98527.31
2023-04-30T05:19:01.215Z,98575.56
2023-04-30T05:22:01.614Z,98580.47
2023-04-30T05:24:29.876Z,98577.22
2023-04-30T05:26:56.736Z,98562.06
2023-04-30T05:29:23.483Z,98559.59
2023-04-30T05:32:02.349Z,98573.94
2023-04-30T05:34:29.142Z,98553.91
2023-04-30T05:36:56.707Z,98580.47
2023-04-30T05:39:23.400Z,98565.16
2023-04-30T05:41:51.636Z,98542.19
2023-04-30T05:44:20.019Z,98556.34
2023-04-30T05:46:46.851Z,98564.09
2023-04-30T05:49:13.781Z,98589.50
2023-04-30T05:51:40.604Z,98561.66
2023-04-30T05:54:07.397Z,98494.09
2023-04-30T05:56:34.215Z,98483.94
2023-04-30T05:59:00.916Z,98559.06
2023-04-30T06:01:29.408Z,98564.38
2023-04-30T06:03:56.082Z,98527.69
2023-04-30T06:06:22.959Z,98533.03
2023-04-30T06:08:49.772Z,98436.84
2023-04-30T06:11:16.840Z,98478.63
2023-04-30T06:13:59.208Z,98556.41
2023-04-30T06:16:26.147Z,98568.25
2023-04-30T06:18:53.883Z,98554.94
2023-04-30T06:21:26.103Z,98569.69
2023-04-30T06:23:53.115Z,98555.78
2023-04-30T06:26:20.431Z,98544.72
2023-04-30T06:28:47.307Z,98546.97
2023-04-30T06:31:14.258Z,98556.97
2023-04-30T06:33:41.245Z,98545.31
2023-04-30T06:36:07.995Z,98549.22
2023-04-30T06:38:34.868Z,98545.50
2023-04-30T06:41:01.614Z,98526.47
2023-04-30T06:43:28.295Z,98548.97
2023-04-30T06:45:55.085Z,98518.72
2023-04-30T06:48:25.191Z,98545.09
2023-04-30T06:50:52.190Z,98582.16
2023-04-30T06:53:33.384Z,98587.09
2023-04-30T06:56:00.891Z,98542.69
2023-04-30T06:58:32.959Z,98547.72
2023-04-30T07:00:59.704Z,98531.81
2023-04-30T07:03:27.719Z,98527.25
2023-04-30T07:05:54.722Z,98494.97
2023-04-30T07:08:22.566Z,98480.16
2023-04-30T07:10:49.574Z,98533.16
2023-04-30T07:13:16.673Z,98522.69
2023-04-30T07:15:43.650Z,98551.75
2023-04-30T07:18:49.058Z,98580.44
2023-04-30T07:21:16.238Z,98572.28
2023-04-30T07:23:44.225Z,98557.06
2023-04-30T07:26:11.042Z,98484.25
2023-04-30T07:28:37.944Z,98480.75
2023-04-30T07:31:05.008Z,98530.84
2023-04-30T07:33:31.841Z,98559.50
2023-04-30T07:35:59.296Z,98557.47
2023-04-30T07:38:26.047Z,98548.31
2023-04-30T07:40:52.993Z,98582.44
2023-04-30T07:43:19.858Z,98550.84
2023-04-30T07:46:04.367Z,98551.09
2023-04-30T07:48:31.643Z,98558.47
2023-04-30T07:51:04.983Z,98554.53
2023-04-30T07:53:33.796Z,98546.03
2023-04-30T07:56:12.829Z,98553.81
2023-04-30T07:58:41.641Z,98543.19
2023-04-30T08:01:08.610Z,98486.69
2023-04-30T08:03:35.618Z,98470.66
2023-04-30T08:06:02.502Z,98481.41
2023-04-30T08:08:29.406Z,98557.13
2023-04-30T08:10:57.295Z,98535.03
2023-04-30T08:13:24.230Z,98546.94
2023-04-30T08:15:50.937Z,98566.28
2023-04-30T08:18:17.894Z,98509.19
2023-04-30T08:20:51.109Z,98394.63
2023-04-30T08:23:18.049Z,98453.22
2023-04-30T08:25:44.757Z,98522.16
2023-04-30T08:28:16.228Z,98537.78
2023-04-30T08:30:43.497Z,98504.53
2023-04-30T08:33:19.674Z,98525.66
2023-04-30T08:35:46.710Z,98496.25
2023-04-30T08:38:17.336Z,98457.25
2023-04-30T08:41:03.827Z,98500.31
2023-04-30T08:43:36.882Z,98468.53
2023-04-30T08:46:05.626Z,98522.88
2023-04-30T08:48:33.192Z,98561.84
2023-04-30T08:51:04.186Z,98509.59
2023-04-30T08:53:35.695Z,98565.84
2023-04-30T08:56:03.538Z,98513.81
2023-04-30T08:58:30.513Z,98433.25
2023-04-30T09:01:01.496Z,98530.75
2023-04-30T09:03:28.827Z,98508.19
2023-04-30T09:05:56.295Z,98501.13
2023-04-30T09:08:43.190Z,98562.38
2023-04-30T09:11:30.586Z,98525.50
2023-04-30T09:14:02.031Z,98551.41
2023-04-30T09:16:49.957Z,98558.94
2023-04-30T09:19:27.467Z,98520.63
2023-04-30T09:21:54.875Z,98544.09
2023-04-30T09:24:21.709Z,98532.56
2023-04-30T09:26:49.474Z,98511.78
2023-04-30T09:29:16.975Z,98526.81
2023-04-30T09:31:48.942Z,98549.22
2023-04-30T09:34:17.816Z,98565.13
2023-04-30T09:36:55.131Z,98518.44
2023-04-30T09:39:22.894Z,98553.47
2023-04-30T09:41:52.424Z,98506.75
2023-04-30T09:44:31.999Z,98558.38
2023-04-30T09:47:30.276Z,98557.78
2023-04-30T09:49:59.620Z,98527.84
2023-04-30T09:52:26.812Z,98555.25
2023-04-30T09:54:53.712Z,98551.91
2023-04-30T09:57:24.154Z,98553.66
2023-04-30T09:59:54.991Z,98515.06
2023-04-30T10:02:24.034Z,98453.13
2023-04-30T10:04:56.579Z,98531.81
2023-04-30T10:07:26.330Z,98534.75
2023-04-30T10:10:10.840Z,98554.78
2023-04-30T10:12:50.766Z,98546.06
2023-04-30T10:15:36.605Z,98535.84
2023-04-30T10:18:07.453Z,98531.78
2023-04-30T10:20:39.264Z,98521.28
2023-04-30T10:23:07.307Z,98515.47
2023-04-30T10:25:35.972Z,98541.34
2023-04-30T10:28:04.840Z,98525.38
2023-04-30T10:30:55.078Z,98541.97
2023-04-30T10:34:00.617Z,98533.13
2023-04-30T10:36:48.990Z,98524.84
2023-04-30T10:39:19.054Z,98527.56
2023-04-30T10:41:49.037Z,98509.13
2023-04-30T10:44:22.115Z,98470.25
2023-04-30T10:47:45.917Z,98534.22
2023-04-30T10:50:13.578Z,98490.06
2023-04-30T10:52:40.366Z,98507.22
2023-04-30T10:55:22.544Z,98481.94
2023-04-30T10:57:51.643Z,98485.16
2023-04-30T11:00:19.594Z,98518.03
2023-04-30T11:02:48.961Z,98517.19
2023-04-30T11:05:18.283Z,98516.00
2023-04-30T11:07:56.556Z,98466.63
2023-04-30T11:10:25.394Z,98512.91
2023-04-30T11:13:07.908Z,98468.31
2023-04-30T11:15:42.468Z,98467.16
2023-04-30T11:18:09.828Z,98493.09
2023-04-30T11:20:43.981Z,98510.91
2023-04-30T11:23:19.590Z,98503.56
2023-04-30T11:25:54.872Z,98473.06
2023-04-30T11:28:37.731Z,98469.03
2023-04-30T11:31:05.068Z,98467.78
2023-04-30T11:33:33.471Z,98480.47
2023-04-30T11:36:22.212Z,98497.31
2023-04-30T11:38:48.899Z,98487.63
2023-04-30T11:41:15.469Z,98451.16
2023-04-30T11:43:51.506Z,98442.53
2023-04-30T11:46:18.440Z,98391.34
2023-04-30T11:49:33.916Z,98477.72
2023-04-30T11:52:00.983Z,98470.03
2023-04-30T11:54:31.245Z,98471.84
2023-04-30T11:57:03.938Z,98420.97
2023-04-30T11:59:49.891Z,98473.25
2023-04-30T12:02:47.881Z,98470.59
2023-04-30T12:05:25.317Z,98474.88
2023-04-30T12:08:06.426Z,98462.59
2023-04-30T12:10:33.488Z,98464.00
2023-04-30T12:13:01.225Z,98456.13
2023-04-30T12:15:29.171Z,98456.84
2023-04-30T12:17:57.796Z,98461.75
2023-04-30T12:20:28.317Z,98397.03
2023-04-30T12:23:01.664Z,98431.94
2023-04-30T12:25:29.629Z,98486.88
2023-04-30T12:27:59.963Z,98438.66
2023-04-30T12:30:27.805Z,98436.28
2023-04-30T12:33:00.855Z,98460.84
2023-04-30T12:35:29.672Z,98382.78
2023-04-30T12:38:08.219Z,98419.88
2023-04-30T12:40:41.146Z,98414.81
2023-04-30T12:43:09.590Z,98441.38
2023-04-30T12:45:52.149Z,98444.47
2023-04-30T12:48:26.120Z,98435.56
2023-04-30T12:51:03.455Z,98397.81
2023-04-30T12:53:58.627Z,98430.78
2023-04-30T12:56:35.678Z,98441.16
2023-04-30T12:59:20.979Z,98404.22
2023-04-30T13:01:47.789Z,98427.97
2023-04-30T13:04:19.853Z,98433.72
2023-04-30T13:06:47.287Z,98422.00
2023-04-30T13:09:14.098Z,98419.38
2023-04-30T13:11:41.955Z,98415.47
2023-04-30T13:14:10.500Z,98402.53
2023-04-30T13:16:44.047Z,98420.53
2023-04-30T13:19:23.141Z,98402.63
2023-04-30T13:24:00.731Z,98420.69
2023-04-30T13:30:38.549Z,98329.03
2023-04-30T13:33:29.190Z,98397.06
2023-04-30T13:35:55.924Z,98388.41
2023-04-30T13:38:24.012Z,98320.84
2023-04-30T13:40:50.760Z,98401.03
2023-04-30T13:43:17.665Z,98361.53
2023-04-30T13:45:44.546Z,98396.09
2023-04-30T13:48:11.446Z,98353.03
2023-04-30T13:50:43.463Z,98391.78
2023-04-30T13:53:10.300Z,98361.38
2023-04-30T13:56:00.192Z,98383.94
2023-04-30T13:58:27.606Z,98347.47
2023-04-30T14:00:54.335Z,98361.63
2023-04-30T14:03:21.268Z,98336.63
2023-04-30T14:05:54.977Z,98353.56
2023-04-30T14:08:23.462Z,98365.63
2023-04-30T14:10:50.624Z,98288.75
2023-04-30T14:13:18.107Z,98332.09
2023-04-30T14:15:44.855Z,98318.38
2023-04-30T14:18:33.528Z,98368.69
2023-04-30T14:21:00.347Z,98353.47
2023-04-30T14:23:27.564Z,98355.97
2023-04-30T14:25:54.330Z,98309.94
2023-04-30T14:28:21.269Z,98325.31
2023-04-30T14:30:47.994Z,98256.44
2023-04-30T14:33:15.008Z,98344.91
2023-04-30T14:35:41.857Z,98348.69
2023-04-30T14:38:08.689Z,98317.28
2023-04-30T14:40:35.771Z,98291.38
2023-04-30T14:43:04.560Z,98340.84
2023-04-30T14:55:12.408Z,98342.53
2023-04-30T14:57:39.021Z,98331.22
2023-04-30T15:00:06.880Z,98315.91
2023-04-30T15:03:01.612Z,98331.75
2023-04-30T15:05:29.099Z,98279.81
2023-04-30T15:07:55.853Z,98317.53
2023-04-30T15:10:22.460Z,98300.50
2023-04-30T15:12:54.164Z,98325.09
2023-04-30T15:15:25.531Z,98253.50
2023-04-30T15:17:52.902Z,98280.88
2023-04-30T15:20:28.875Z,98313.47
2023-04-30T15:22:55.554Z,98321.63
2023-04-30T15:25:24.134Z,98319.63
2023-04-30T15:27:52.041Z,98317.69
2023-04-30T15:30:19.187Z,98313.72
2023-04-30T15:32:47.120Z,98294.78
2023-04-30T15:35:20.751Z,98262.16
2023-04-30T15:37:47.397Z,98254.69
2023-04-30T15:40:15.630Z,98300.50
2023-04-30T15:43:05.043Z,98298.66
2023-04-30T15:45:33.752Z,98285.50
2023-04-30T15:48:00.927Z,98274.59
2023-04-30T15:50:31.904Z,98244.66
2023-04-30T15:52:58.873Z,98288.75
2023-04-30T15:55:26.327Z,98289.25
2023-04-30T15:57:55.013Z,98230.22
2023-04-30T16:00:29.425Z,98213.59
2023-04-30T16:02:56.183Z,98204.19
2023-04-30T16:05:22.917Z,98270.50
2023-04-30T16:07:49.689Z,98277.34
2023-04-30T16:10:16.565Z,98262.69
2023-04-30T16:12:43.286Z,98247.00
2023-04-30T16:15:11.213Z,98248.44
2023-04-30T16:17:37.857Z,98218.28
2023-04-30T16:20:05.159Z,98239.22
2023-04-30T16:22:31.790Z,98259.56
2023-04-30T16:25:00.407Z,98265.88
2023-04-30T16:27:27.120Z,98230.53
2023-04-30T16:29:54.055Z,98178.84
2023-04-30T16:32:21.266Z,98246.38
2023-04-30T16:34:52.230Z,98245.34
2023-04-30T16:37:18.960Z,98207.72
2023-04-30T16:39:45.676Z,98235.56
2023-04-30T16:42:12.341Z,98160.66
2023-04-30T16:45:08.421Z,98237.47
2023-04-30T16:47:38.172Z,98182.72
2023-04-30T16:50:05.195Z,98211.91
2023-04-30T16:52:36.880Z,98226.19
2023-04-30T16:55:05.115Z,98232.69
2023-04-30T16:57:32.166Z,98205.59
2023-04-30T17:00:08.578Z,98236.72
2023-04-30T17:02:35.444Z,98233.31
2023-04-30T17:05:02.221Z,98220.94
2023-04-30T17:07:28.763Z,98233.13
2023-04-30T17:09:59.502Z,98215.78
2023-04-30T17:12:40.585Z,98237.25
2023-04-30T17:15:18.459Z,98202.09
2023-04-30T17:17:45.469Z,98191.88
2023-04-30T17:20:12.590Z,98189.66
2023-04-30T17:23:07.534Z,98233.75
2023-04-30T17:25:54.499Z,98228.34
2023-04-30T17:28:21.256Z,98225.09
2023-04-30T17:30:47.925Z,98233.25
2023-04-30T17:33:56.472Z,98227.34
2023-04-30T17:36:23.625Z,98186.00
2023-04-30T17:38:50.168Z,98223.25
2023-04-30T17:41:18.930Z,98231.63
2023-04-30T17:43:45.544Z,98226.66
2023-04-30T17:46:13.037Z,98191.47
2023-04-30T17:48:39.770Z,98169.06
2023-04-30T17:51:06.723Z,98199.69
2023-04-30T17:53:33.725Z,98221.22
2023-04-30T17:56:00.879Z,98232.56
2023-04-30T17:58:27.667Z,98209.88
2023-04-30T18:00:56.108Z,98181.00
2023-04-30T18:03:27.140Z,98215.81
2023-04-30T18:05:53.935Z,98188.84
2023-04-30T18:08:20.538Z,98183.91
2023-04-30T18:10:48.358Z,98232.31
2023-04-30T18:13:14.993Z,98191.25
2023-04-30T18:15:41.960Z,98228.81
2023-04-30T18:18:08.628Z,98244.50
2023-04-30T18:20:43.739Z,98206.69
2023-04-30T18:27:30.697Z,98242.47
2023-04-30T18:30:22.201Z,98182.59
2023-04-30T18:32:48.786Z,98247.50
2023-04-30T18:35:15.616Z,98234.75
2023-04-30T18:38:02.364Z,98246.19
2023-04-30T18:40:29.248Z,98213.94
2023-04-30T18:42:56.918Z,98213.06
2023-04-30T18:46:05.924Z,98248.38
2023-04-30T18:48:32.665Z,98252.53
2023-04-30T18:50:59.398Z,98205.00
2023-04-30T18:53:26.166Z,98188.34
2023-04-30T18:55:53.095Z,98209.16
2023-04-30T18:58:19.725Z,98219.19
2023-04-30T19:00:58.791Z,98223.56
2023-04-30T19:03:45.061Z,98258.25
2023-04-30T19:06:12.039Z,98209.91
2023-04-30T19:08:38.636Z,98247.78
2023-04-30T19:11:05.505Z,98245.00
2023-04-30T19:13:32.125Z,98203.44
2023-04-30T19:15:58.965Z,98227.53
2023-04-30T19:19:00.371Z,98226.78
2023-04-30T19:21:28.561Z,98256.28
2023-04-30T19:23:57.407Z,98258.41
2023-04-30T19:26:25.576Z,98220.75
2023-04-30T19:29:31.462Z,98267.69
2023-04-30T19:32:43.050Z,98267.84
2023-04-30T19:35:10.000Z,98256.91
2023-04-30T19:37:36.897Z,98208.38
2023-04-30T19:40:07.630Z,98177.63
2023-04-30T19:42:34.280Z,98257.38
2023-04-30T19:57:55.835Z,98259.22
2023-04-30T20:00:23.378Z,98249.22
2023-04-30T20:02:52.037Z,98267.94
2023-04-30T20:05:18.896Z,98262.00
2023-04-30T20:07:45.548Z,98226.94
2023-04-30T20:10:12.827Z,98231.34
2023-04-30T20:12:43.577Z,98210.94
2023-04-30T20:15:10.626Z,98272.06
2023-04-30T20:17:42.488Z,98248.94
2023-04-30T20:20:09.502Z,98215.72
2023-04-30T20:22:36.075Z,98278.59
2023-04-30T20:25:03.657Z,98252.22
2023-04-30T20:27:30.487Z,98222.88
2023-04-30T20:29:57.286Z,98242.97
2023-04-30T20:32:24.180Z,98112.06
2023-04-30T20:34:51.505Z,98239.53
2023-04-30T20:37:18.180Z,98181.88
2023-04-30T20:40:04.075Z,98253.34
2023-04-30T20:42:30.799Z,98254.53
2023-04-30T20:44:57.424Z,98216.50
2023-04-30T20:47:24.188Z,98239.28
2023-04-30T20:49:51.366Z,98245.06
2023-04-30T20:52:18.747Z,98246.78
2023-04-30T20:55:07.669Z,98264.72
2023-04-30T20:57:34.608Z,98258.81
2023-04-30T21:00:01.424Z,98248.19
2023-04-30T21:02:28.113Z,98239.63
2023-04-30T21:04:55.023Z,98240.75
2023-04-30T21:07:21.755Z,98239.94
2023-04-30T21:09:48.569Z,98236.31
2023-04-30T21:12:15.249Z,98233.06
2023-04-30T21:14:56.538Z,98261.22
2023-04-30T21:17:23.428Z,98277.44
2023-04-30T21:19:50.234Z,98214.38
2023-04-30T21:22:16.934Z,98242.41
2023-04-30T21:24:44.885Z,98231.28
2023-04-30T21:27:11.602Z,98205.88
2023-04-30T21:29:42.805Z,98230.50
2023-04-30T21:32:09.947Z,98194.44
2023-04-30T21:34:36.757Z,98217.41
2023-04-30T21:37:03.646Z,98192.88
2023-04-30T21:39:31.617Z,98174.47
2023-04-30T21:41:58.343Z,98198.13
2023-04-30T21:44:25.089Z,98200.59
2023-04-30T21:46:51.965Z,98196.66
2023-04-30T21:49:18.855Z,98213.97
2023-04-30T21:51:45.620Z,98154.75
2023-04-30T21:54:12.297Z,98246.25
2023-04-30T21:56:41.183Z,98214.84
2023-04-30T21:59:07.860Z,98218.56
2023-04-30T22:01:34.595Z,98205.59
2023-04-30T22:04:01.337Z,98168.53
2023-04-30T22:06:28.600Z,98224.91
2023-04-30T22:08:55.428Z,98225.38
2023-04-30T22:11:45.212Z,98215.41
2023-04-30T22:14:12.292Z,98182.84
2023-04-30T22:16:39.088Z,98194.63
2023-04-30T22:19:05.999Z,98224.91
2023-04-30T22:21:33.091Z,98209.34
2023-04-30T22:24:00.876Z,98214.69
2023-04-30T22:26:27.481Z,98200.34
2023-04-30T22:28:59.467Z,98160.22
2023-04-30T22:31:26.320Z,98182.72
2023-04-30T22:33:53.182Z,98153.28
2023-04-30T22:36:19.861Z,98155.97
2023-04-30T22:38:46.433Z,98141.16
2023-04-30T22:41:13.256Z,98154.22
2023-04-30T22:43:40.212Z,98174.81
2023-04-30T22:46:06.976Z,98161.72
2023-04-30T22:48:34.377Z,98097.78
2023-04-30T22:51:01.203Z,98088.97
2023-04-30T22:53:28.541Z,98101.78
2023-04-30T22:55:55.484Z,98167.06
2023-04-30T22:58:22.474Z,98148.47
2023-04-30T23:00:49.192Z,98148.69
2023-04-30T23:03:16.335Z,98200.16
2023-04-30T23:05:43.310Z,98198.91
2023-04-30T23:08:17.360Z,98202.44
2023-04-30T23:10:44.978Z,98029.06
2023-04-30T23:13:12.037Z,98162.03
2023-04-30T23:15:48.630Z,98184.19
2023-04-30T23:18:15.224Z,98168.78
2023-04-30T23:20:42.324Z,98142.22
2023-04-30T23:23:36.181Z,98192.94
2023-04-30T23:26:02.734Z,98140.75
2023-04-30T23:28:29.473Z,98163.81
2023-04-30T23:30:57.812Z,98130.53
2023-04-30T23:33:36.724Z,98181.06
2023-04-30T23:36:03.718Z,98189.91
2023-04-30T23:38:30.463Z,98127.50
2023-04-30T23:40:57.725Z,98052.13
2023-04-30T23:43:25.388Z,98148.97
2023-04-30T23:45:52.580Z,98121.59
2023-04-30T23:48:19.389Z,98156.03
2023-04-30T23:50:47.289Z,98147.41
2023-04-30T23:53:17.230Z,98152.56
2023-04-30T23:55:44.128Z,98114.88
2023-04-30T23:58:11.060Z,98112.44
